createdAt,value
2023-04-07T00:01:18.994Z,7.83
2023-04-07T00:03:45.972Z,7.97
2023-04-07T00:06:12.818Z,8.33
2023-04-07T00:08:39.622Z,7.93
2023-04-07T00:11:06.277Z,7.50
2023-04-07T00:13:32.848Z,7.80
2023-04-07T00:15:59.511Z,7.97
2023-04-07T00:18:26.189Z,7.87
2023-04-07T00:20:52.811Z,7.70
2023-04-07T00:23:20.007Z,7.57
2023-04-07T00:25:48.362Z,7.67
2023-04-07T00:28:14.932Z,8.13
2023-04-07T00:30:41.484Z,7.07
2023-04-07T00:33:09.762Z,8.07
2023-04-07T00:35:36.652Z,7.67
2023-04-07T00:38:03.559Z,9.07
2023-04-07T00:40:30.474Z,8.37
2023-04-07T00:42:57.260Z,7.57
2023-04-07T00:45:23.908Z,7.90
2023-04-07T00:47:50.889Z,8.27
2023-04-07T00:50:18.749Z,8.63
2023-04-07T00:52:45.793Z,8.57
2023-04-07T00:55:12.412Z,8.57
2023-04-07T00:57:39.058Z,8.17
2023-04-07T01:00:06.926Z,7.83
2023-04-07T01:03:00.667Z,7.93
2023-04-07T01:05:38.916Z,8.77
2023-04-07T01:08:09.759Z,7.27
2023-04-07T01:10:44.577Z,8.73
2023-04-07T01:13:29.438Z,7.83
2023-04-07T01:15:58.678Z,9.00
2023-04-07T01:18:29.976Z,8.17
2023-04-07T01:21:02.824Z,7.67
2023-04-07T01:23:52.580Z,7.73
2023-04-07T01:26:26.818Z,7.80
2023-04-07T01:29:25.339Z,7.80
2023-04-07T01:31:58.497Z,7.50
2023-04-07T01:34:27.602Z,7.87
2023-04-07T01:36:56.202Z,7.73
2023-04-07T01:39:23.611Z,8.27
2023-04-07T01:41:53.095Z,8.13
2023-04-07T01:44:20.912Z,8.30
2023-04-07T01:46:51.023Z,7.63
2023-04-07T01:49:18.572Z,7.93
2023-04-07T01:51:50.326Z,8.03
2023-04-07T01:54:18.125Z,8.80
2023-04-07T01:56:45.474Z,8.27
2023-04-07T01:59:12.189Z,7.67
2023-04-07T02:01:39.308Z,8.77
2023-04-07T02:04:11.893Z,8.80
2023-04-07T02:06:45.091Z,8.20
2023-04-07T02:09:13.840Z,8.73
2023-04-07T02:11:41.136Z,7.47
2023-04-07T02:14:08.631Z,8.00
2023-04-07T02:16:35.765Z,8.53
2023-04-07T02:19:03.672Z,8.23
2023-04-07T02:21:31.004Z,8.27
2023-04-07T02:24:01.410Z,7.87
2023-04-07T02:26:27.965Z,7.43
2023-04-07T02:28:54.576Z,8.17
2023-04-07T02:31:21.241Z,7.93
2023-04-07T02:33:47.857Z,8.83
2023-04-07T02:36:14.452Z,8.10
2023-04-07T02:38:41.056Z,7.83
2023-04-07T02:41:07.719Z,9.30
2023-04-07T02:43:34.333Z,8.60
2023-04-07T02:46:00.974Z,8.83
2023-04-07T02:48:27.590Z,9.13
2023-04-07T02:50:54.183Z,8.97
2023-04-07T02:53:20.946Z,9.40
2023-04-07T02:55:47.582Z,9.07
2023-04-07T02:58:14.181Z,9.57
2023-04-07T03:00:40.777Z,9.47
2023-04-07T03:03:07.740Z,9.40
2023-04-07T03:05:34.425Z,9.87
2023-04-07T03:08:01.073Z,9.77
2023-04-07T03:10:27.632Z,10.50
2023-04-07T03:12:54.441Z,9.47
2023-04-07T03:15:21.562Z,10.40
2023-04-07T03:17:48.216Z,10.00
2023-04-07T03:20:14.838Z,10.37
2023-04-07T03:22:41.791Z,9.50
2023-04-07T03:25:08.807Z,9.70
2023-04-07T03:27:35.463Z,10.03
2023-04-07T03:30:02.682Z,9.40
2023-04-07T03:32:29.333Z,9.93
2023-04-07T03:34:56.507Z,10.20
2023-04-07T03:37:23.095Z,9.83
2023-04-07T03:39:50.924Z,9.97
2023-04-07T03:42:18.724Z,9.93
2023-04-07T03:44:45.263Z,9.37
2023-04-07T03:47:11.860Z,9.60
2023-04-07T03:49:38.610Z,9.33
2023-04-07T03:52:05.542Z,9.33
2023-04-07T03:54:32.185Z,8.87
2023-04-07T03:56:58.834Z,9.27
2023-04-07T03:59:25.391Z,8.73
2023-04-07T04:01:52.468Z,8.77
2023-04-07T04:04:19.403Z,9.03
2023-04-07T04:06:46.050Z,8.40
2023-04-07T04:09:12.695Z,8.80
2023-04-07T04:11:39.340Z,8.30
2023-04-07T04:14:06.621Z,8.47
2023-04-07T04:16:35.499Z,8.43
2023-04-07T04:19:02.336Z,8.70
2023-04-07T04:21:28.962Z,8.53
2023-04-07T04:23:55.713Z,8.13
2023-04-07T04:26:26.016Z,7.80
2023-04-07T04:28:55.525Z,8.93
2023-04-07T04:31:22.261Z,8.70
2023-04-07T04:33:48.910Z,8.77
2023-04-07T04:36:15.811Z,10.13
2023-04-07T04:38:42.410Z,11.27
2023-04-07T04:41:09.074Z,10.37
2023-04-07T04:43:35.643Z,10.13
2023-04-07T04:46:02.249Z,9.23
2023-04-07T04:48:28.849Z,9.27
2023-04-07T04:50:55.450Z,10.60
2023-04-07T04:53:22.270Z,9.37
2023-04-07T04:55:52.215Z,9.77
2023-04-07T04:58:21.231Z,10.10
2023-04-07T05:00:47.850Z,9.97
2023-04-07T05:03:14.749Z,9.50
2023-04-07T05:05:41.673Z,8.67
2023-04-07T05:08:11.018Z,10.47
2023-04-07T05:10:41.533Z,9.20
2023-04-07T05:13:08.161Z,8.90
2023-04-07T05:15:34.728Z,9.77
2023-04-07T05:18:01.350Z,8.77
2023-04-07T05:20:28.026Z,8.97
2023-04-07T05:22:54.671Z,9.10
2023-04-07T05:25:21.333Z,8.67
2023-04-07T05:27:47.926Z,9.10
2023-04-07T05:30:15.004Z,8.63
2023-04-07T05:32:41.657Z,8.67
2023-04-07T05:35:08.790Z,8.93
2023-04-07T05:37:35.410Z,10.27
2023-04-07T05:40:02.063Z,9.33
2023-04-07T05:42:28.663Z,8.90
2023-04-07T05:44:56.323Z,9.33
2023-04-07T05:47:22.869Z,9.77
2023-04-07T05:49:49.511Z,10.40
2023-04-07T05:52:16.144Z,9.63
2023-04-07T05:54:42.766Z,10.07
2023-04-07T05:57:09.610Z,9.33
2023-04-07T05:59:36.784Z,10.30
2023-04-07T06:02:04.249Z,10.47
2023-04-07T06:04:31.047Z,9.07
2023-04-07T06:06:57.674Z,10.47
2023-04-07T06:09:24.622Z,8.60
2023-04-07T06:11:51.220Z,10.37
2023-04-07T06:14:17.973Z,9.93
2023-04-07T06:16:44.751Z,10.80
2023-04-07T06:19:11.372Z,10.13
2023-04-07T06:21:38.022Z,8.80
2023-04-07T06:24:04.721Z,9.30
2023-04-07T06:26:31.912Z,8.23
2023-04-07T06:28:59.147Z,8.73
2023-04-07T06:31:26.283Z,7.63
2023-04-07T06:33:53.302Z,7.97
2023-04-07T06:36:21.855Z,8.70
2023-04-07T06:38:48.473Z,8.33
2023-04-07T06:41:17.165Z,8.68
2023-04-07T06:43:52.892Z,8.27
2023-04-07T06:46:19.785Z,8.23
2023-04-07T06:48:46.805Z,8.00
2023-04-07T06:51:13.469Z,7.17
2023-04-07T06:53:41.564Z,8.73
2023-04-07T06:56:12.009Z,8.37
2023-04-07T06:58:39.042Z,8.20
2023-04-07T07:01:06.393Z,9.63
2023-04-07T07:03:33.547Z,7.67
2023-04-07T07:06:00.871Z,8.43
2023-04-07T07:08:28.371Z,8.37
2023-04-07T07:10:55.360Z,7.93
2023-04-07T07:13:24.562Z,8.70
2023-04-07T07:15:51.666Z,8.47
2023-04-07T07:18:18.954Z,7.73
2023-04-07T07:20:46.029Z,9.93
2023-04-07T07:23:12.914Z,7.53
2023-04-07T07:25:39.629Z,8.50
2023-04-07T07:28:06.266Z,8.47
2023-04-07T07:30:32.942Z,7.97
2023-04-07T07:32:59.812Z,7.40
2023-04-07T07:35:26.513Z,7.60
2023-04-07T07:37:53.089Z,7.53
2023-04-07T07:40:19.676Z,8.37
2023-04-07T07:42:47.261Z,8.23
2023-04-07T07:45:14.105Z,8.33
2023-04-07T07:47:42.100Z,7.57
2023-04-07T07:50:08.977Z,7.03
2023-04-07T07:52:35.632Z,7.93
2023-04-07T07:55:02.320Z,7.83
2023-04-07T07:57:30.921Z,7.97
2023-04-07T07:59:57.573Z,7.80
2023-04-07T08:02:29.713Z,7.70
2023-04-07T08:04:57.523Z,8.30
2023-04-07T08:07:24.216Z,7.87
2023-04-07T08:09:50.943Z,9.20
2023-04-07T08:12:17.632Z,7.87
2023-04-07T08:14:44.686Z,7.87
2023-04-07T08:17:12.549Z,7.87
2023-04-07T08:19:39.235Z,8.23
2023-04-07T08:22:05.911Z,8.60
2023-04-07T08:24:35.775Z,8.03
2023-04-07T08:27:02.407Z,7.50
2023-04-07T08:29:30.560Z,8.70
2023-04-07T08:31:57.840Z,7.40
2023-04-07T08:34:24.467Z,8.17
2023-04-07T08:36:51.126Z,7.97
2023-04-07T08:39:18.028Z,7.43
2023-04-07T08:41:45.360Z,6.97
2023-04-07T08:44:13.387Z,7.93
2023-04-07T08:46:40.548Z,7.47
2023-04-07T08:49:13.819Z,7.83
2023-04-07T08:51:50.714Z,8.10
2023-04-07T08:54:22.620Z,5.83
2023-04-07T08:56:49.324Z,8.50
2023-04-07T08:59:18.778Z,8.30
2023-04-07T09:01:46.711Z,13.17
2023-04-07T09:04:13.644Z,7.97
2023-04-07T09:06:40.443Z,8.10
2023-04-07T09:09:07.084Z,6.90
2023-04-07T09:11:37.279Z,8.47
2023-04-07T09:14:03.956Z,8.10
2023-04-07T09:16:33.427Z,8.10
2023-04-07T09:19:00.041Z,7.87
2023-04-07T09:21:27.428Z,7.23
2023-04-07T09:23:54.198Z,8.23
2023-04-07T09:26:28.425Z,7.57
2023-04-07T09:28:58.082Z,8.80
2023-04-07T09:31:44.349Z,8.50
2023-04-07T09:34:31.897Z,7.73
2023-04-07T09:36:58.874Z,7.80
2023-04-07T09:39:26.404Z,8.87
2023-04-07T09:41:53.142Z,7.83
2023-04-07T09:44:20.964Z,8.20
2023-04-07T09:46:55.632Z,8.33
2023-04-07T09:49:26.209Z,7.67
2023-04-07T09:51:57.580Z,7.07
2023-04-07T09:54:36.194Z,7.40
2023-04-07T09:57:07.542Z,7.07
2023-04-07T09:59:36.326Z,7.67
2023-04-07T10:02:03.673Z,7.87
2023-04-07T10:04:31.975Z,8.27
2023-04-07T10:07:00.023Z,7.47
2023-04-07T10:09:28.114Z,7.23
2023-04-07T10:11:56.873Z,8.17
2023-04-07T10:14:27.103Z,7.40
2023-04-07T10:16:54.670Z,7.97
2023-04-07T10:19:21.501Z,7.93
2023-04-07T10:21:52.104Z,8.10
2023-04-07T10:24:43.405Z,10.03
2023-04-07T10:27:13.790Z,8.50
2023-04-07T10:29:45.284Z,7.93
2023-04-07T10:32:11.990Z,7.07
2023-04-07T10:34:50.822Z,7.70
2023-04-07T10:37:21.278Z,7.93
2023-04-07T10:40:19.089Z,7.67
2023-04-07T10:42:49.386Z,7.37
2023-04-07T10:45:16.251Z,6.83
2023-04-07T10:47:58.124Z,8.13
2023-04-07T10:50:25.882Z,7.90
2023-04-07T10:53:13.581Z,7.37
2023-04-07T10:55:44.867Z,8.10
2023-04-07T10:58:19.364Z,7.53
2023-04-07T11:01:01.578Z,7.13
2023-04-07T11:03:29.883Z,7.23
2023-04-07T11:06:10.607Z,7.13
2023-04-07T11:08:38.012Z,7.13
2023-04-07T11:11:09.293Z,6.63
2023-04-07T11:13:48.972Z,6.90
2023-04-07T11:16:18.405Z,8.07
2023-04-07T11:18:46.461Z,6.30
2023-04-07T11:21:18.226Z,7.70
2023-04-07T11:23:46.804Z,6.90
2023-04-07T11:26:14.940Z,6.80
2023-04-07T11:28:54.328Z,6.80
2023-04-07T11:31:31.262Z,8.27
2023-04-07T11:33:59.402Z,7.03
2023-04-07T11:36:39.095Z,6.63
2023-04-07T11:39:05.955Z,6.77
2023-04-07T11:41:33.675Z,6.67
2023-04-07T11:44:11.010Z,6.10
2023-04-07T11:46:53.309Z,7.27
2023-04-07T11:49:19.923Z,6.90
2023-04-07T11:51:47.181Z,7.77
2023-04-07T11:54:13.936Z,6.03
2023-04-07T11:56:47.547Z,7.90
2023-04-07T11:59:25.057Z,7.53
2023-04-07T12:01:55.259Z,6.67
2023-04-07T12:04:23.848Z,7.40
2023-04-07T12:06:50.973Z,7.67
2023-04-07T12:09:36.201Z,6.63
2023-04-07T12:12:04.077Z,7.80
2023-04-07T12:14:30.695Z,6.70
2023-04-07T12:16:58.424Z,9.40
2023-04-07T12:19:29.361Z,16.77
2023-04-07T12:21:56.901Z,13.70
2023-04-07T12:24:24.001Z,7.40
2023-04-07T12:26:50.841Z,7.63
2023-04-07T12:29:20.045Z,8.73
2023-04-07T12:31:48.091Z,12.27
2023-04-07T12:34:16.415Z,10.37
2023-04-07T12:36:43.735Z,8.53
2023-04-07T12:39:10.384Z,9.67
2023-04-07T12:41:38.725Z,8.90
2023-04-07T12:44:05.976Z,10.23
2023-04-07T12:46:32.814Z,7.80
2023-04-07T12:48:59.527Z,8.83
2023-04-07T12:51:26.388Z,8.27
2023-04-07T12:53:54.269Z,11.27
2023-04-07T12:56:22.540Z,9.63
2023-04-07T12:58:49.191Z,9.10
2023-04-07T13:01:16.728Z,9.50
2023-04-07T13:03:43.888Z,8.07
2023-04-07T13:06:11.012Z,7.33
2023-04-07T13:08:38.376Z,7.57
2023-04-07T13:11:05.457Z,7.83
2023-04-07T13:13:32.087Z,8.93
2023-04-07T13:15:58.938Z,8.00
2023-04-07T13:18:25.492Z,8.90
2023-04-07T13:21:10.740Z,7.83
2023-04-07T13:23:53.366Z,7.70
2023-04-07T13:26:19.981Z,7.03
2023-04-07T13:28:47.928Z,7.60
2023-04-07T13:31:16.349Z,8.57
2023-04-07T13:33:43.271Z,7.70
2023-04-07T13:36:10.440Z,8.33
2023-04-07T13:38:37.070Z,9.20
2023-04-07T13:41:04.182Z,7.37
2023-04-07T13:43:30.774Z,7.30
2023-04-07T13:45:57.429Z,7.90
2023-04-07T13:48:24.036Z,8.97
2023-04-07T13:50:50.921Z,7.77
2023-04-07T13:53:19.144Z,8.47
2023-04-07T13:55:46.130Z,7.57
2023-04-07T13:58:13.077Z,6.97
2023-04-07T14:00:40.441Z,7.07
2023-04-07T14:03:08.387Z,7.40
2023-04-07T14:05:36.089Z,7.93
2023-04-07T14:08:02.860Z,8.10
2023-04-07T14:10:29.506Z,9.87
2023-04-07T14:12:56.369Z,8.40
2023-04-07T14:15:23.111Z,8.73
2023-04-07T14:17:49.738Z,8.37
2023-04-07T14:20:16.447Z,12.50
2023-04-07T14:22:43.029Z,9.60
2023-04-07T14:25:11.288Z,7.83
2023-04-07T14:27:38.004Z,7.67
2023-04-07T14:30:05.181Z,20.40
2023-04-07T14:32:33.440Z,11.30
2023-04-07T14:35:00.240Z,9.07
2023-04-07T14:37:28.661Z,9.93
2023-04-07T14:40:02.094Z,8.27
2023-04-07T14:42:30.271Z,8.13
2023-04-07T14:44:56.892Z,9.10
2023-04-07T14:47:23.644Z,8.90
2023-04-07T14:49:53.221Z,8.70
2023-04-07T14:52:21.819Z,8.73
2023-04-07T14:54:48.798Z,9.20
2023-04-07T14:57:16.625Z,9.57
2023-04-07T14:59:43.608Z,9.33
2023-04-07T15:02:10.662Z,9.77
2023-04-07T15:04:37.523Z,9.14
2023-04-07T15:07:05.013Z,8.80
2023-04-07T15:09:31.747Z,9.83
2023-04-07T15:12:00.412Z,10.30
2023-04-07T15:14:27.147Z,10.20
2023-04-07T15:16:53.899Z,8.87
2023-04-07T15:19:20.543Z,9.97
2023-04-07T15:21:47.125Z,10.57
2023-04-07T15:24:15.915Z,10.00
2023-04-07T15:26:42.990Z,9.47
2023-04-07T15:29:09.583Z,10.37
2023-04-07T15:31:36.281Z,10.57
2023-04-07T15:34:02.984Z,11.40
2023-04-07T15:36:29.561Z,10.87
2023-04-07T15:38:56.174Z,11.90
2023-04-07T15:41:23.392Z,11.93
2023-04-07T15:43:50.483Z,14.87
2023-04-07T15:46:17.138Z,17.30
2023-04-07T15:48:43.757Z,12.93
2023-04-07T15:51:10.341Z,12.07
2023-04-07T15:53:36.912Z,12.43
2023-04-07T15:56:03.598Z,12.83
2023-04-07T15:58:31.527Z,12.80
2023-04-07T16:00:58.957Z,10.90
2023-04-07T16:03:25.992Z,13.10
2023-04-07T16:05:52.751Z,12.70
2023-04-07T16:08:19.660Z,11.60
2023-04-07T16:10:46.427Z,13.80
2023-04-07T16:13:14.219Z,12.43
2023-04-07T16:15:41.798Z,14.40
2023-04-07T16:18:10.135Z,12.30
2023-04-07T16:20:36.734Z,12.47
2023-04-07T16:23:03.442Z,13.00
2023-04-07T16:25:30.945Z,13.00
2023-04-07T16:27:57.579Z,13.30
2023-04-07T16:30:25.369Z,13.00
2023-04-07T16:32:52.271Z,14.63
2023-04-07T16:35:19.190Z,12.27
2023-04-07T16:37:46.693Z,12.63
2023-04-07T16:40:13.672Z,12.53
2023-04-07T16:42:40.961Z,12.53
2023-04-07T16:45:08.269Z,13.43
2023-04-07T16:47:35.692Z,14.10
2023-04-07T16:50:04.025Z,14.13
2023-04-07T16:52:31.028Z,12.83
2023-04-07T16:54:57.962Z,14.03
2023-04-07T16:57:24.615Z,13.17
2023-04-07T16:59:51.300Z,15.37
2023-04-07T17:02:18.183Z,14.80
2023-04-07T17:04:44.957Z,12.97
2023-04-07T17:07:11.930Z,13.97
2023-04-07T17:09:39.055Z,14.97
2023-04-07T17:12:06.330Z,17.23
2023-04-07T17:14:33.280Z,15.87
2023-04-07T17:16:59.943Z,16.47
2023-04-07T17:19:27.279Z,15.13
2023-04-07T17:21:53.876Z,16.00
2023-04-07T17:24:20.563Z,14.40
2023-04-07T17:26:48.013Z,15.20
2023-04-07T17:29:15.657Z,14.93
2023-04-07T17:31:42.268Z,15.57
2023-04-07T17:34:09.005Z,15.30
2023-04-07T17:36:37.548Z,16.10
2023-04-07T17:39:05.360Z,15.47
2023-04-07T17:41:35.654Z,15.00
2023-04-07T17:44:02.480Z,16.00
2023-04-07T17:46:29.465Z,15.90
2023-04-07T17:48:59.110Z,16.07
2023-04-07T17:51:26.637Z,15.63
2023-04-07T17:53:53.994Z,20.10
2023-04-07T17:56:21.360Z,17.40
2023-04-07T17:58:48.339Z,25.70
2023-04-07T18:01:15.750Z,17.67
2023-04-07T18:03:42.830Z,17.47
2023-04-07T18:06:09.748Z,16.50
2023-04-07T18:08:36.669Z,15.37
2023-04-07T18:11:05.902Z,16.37
2023-04-07T18:13:34.033Z,16.47
2023-04-07T18:16:00.843Z,15.37
2023-04-07T18:18:27.640Z,17.17
2023-04-07T18:20:54.247Z,17.60
2023-04-07T18:23:20.821Z,17.73
2023-04-07T18:25:47.623Z,18.87
2023-04-07T18:28:14.226Z,17.80
2023-04-07T18:30:40.852Z,17.23
2023-04-07T18:33:07.526Z,16.67
2023-04-07T18:35:34.380Z,17.57
2023-04-07T18:38:01.056Z,17.67
2023-04-07T18:40:30.019Z,18.00
2023-04-07T18:42:56.705Z,18.17
2023-04-07T18:45:23.347Z,21.83
2023-04-07T18:47:50.821Z,18.37
2023-04-07T18:50:18.229Z,18.73
2023-04-07T18:52:44.803Z,20.93
2023-04-07T18:55:11.391Z,19.40
2023-04-07T18:57:39.574Z,17.00
2023-04-07T19:00:06.999Z,16.93
2023-04-07T19:02:33.717Z,16.40
2023-04-07T19:05:01.508Z,18.57
2023-04-07T19:07:28.190Z,18.17
2023-04-07T19:09:55.062Z,16.93
2023-04-07T19:12:22.293Z,18.10
2023-04-07T19:14:48.940Z,17.53
2023-04-07T19:17:15.618Z,19.03
2023-04-07T19:19:42.159Z,19.50
2023-04-07T19:22:08.793Z,19.00
2023-04-07T19:24:36.182Z,16.03
2023-04-07T19:27:03.328Z,17.80
2023-04-07T19:29:29.988Z,16.53
2023-04-07T19:31:57.460Z,16.83
2023-04-07T19:34:24.094Z,18.83
2023-04-07T19:36:50.782Z,16.33
2023-04-07T19:39:17.371Z,18.77
2023-04-07T19:41:43.933Z,16.97
2023-04-07T19:44:10.586Z,16.97
2023-04-07T19:46:37.593Z,19.10
2023-04-07T19:49:04.141Z,16.97
2023-04-07T19:51:31.165Z,21.43
2023-04-07T19:53:57.785Z,21.27
2023-04-07T19:56:25.123Z,21.37
2023-04-07T19:58:51.887Z,21.10
2023-04-07T20:01:18.908Z,20.33
2023-04-07T20:03:46.341Z,19.67
2023-04-07T20:06:14.687Z,20.93
2023-04-07T20:08:41.998Z,19.93
2023-04-07T20:11:13.032Z,19.50
2023-04-07T20:13:41.288Z,19.20
2023-04-07T20:16:08.138Z,19.53
2023-04-07T20:18:34.771Z,17.40
2023-04-07T20:21:02.228Z,17.90
2023-04-07T20:23:28.876Z,18.43
2023-04-07T20:25:55.426Z,18.43
2023-04-07T20:28:22.538Z,17.77
2023-04-07T20:30:49.242Z,18.20
2023-04-07T20:33:16.306Z,18.00
2023-04-07T20:35:43.313Z,17.83
2023-04-07T20:38:09.961Z,18.40
2023-04-07T20:40:37.269Z,18.40
2023-04-07T20:43:07.075Z,18.60
2023-04-07T20:45:34.179Z,19.03
2023-04-07T20:48:01.565Z,18.67
2023-04-07T20:50:28.672Z,17.57
2023-04-07T20:52:55.246Z,17.80
2023-04-07T20:55:21.942Z,21.20
2023-04-07T20:57:50.272Z,22.63
2023-04-07T21:00:18.784Z,35.27
2023-04-07T21:02:46.840Z,21.47
2023-04-07T21:05:13.633Z,21.83
2023-04-07T21:07:40.518Z,22.33
2023-04-07T21:10:08.754Z,18.37
2023-04-07T21:12:36.602Z,19.30
2023-04-07T21:15:03.493Z,21.97
2023-04-07T21:17:30.096Z,42.83
2023-04-07T21:19:56.733Z,21.97
2023-04-07T21:22:23.359Z,18.33
2023-04-07T21:24:49.907Z,18.80
2023-04-07T21:27:16.649Z,18.73
2023-04-07T21:29:43.275Z,18.07
2023-04-07T21:32:10.510Z,19.10
2023-04-07T21:34:37.156Z,20.33
2023-04-07T21:37:03.784Z,18.63
2023-04-07T21:39:30.426Z,18.70
2023-04-07T21:41:57.450Z,20.80
2023-04-07T21:44:24.333Z,20.73
2023-04-07T21:46:51.331Z,19.57
2023-04-07T21:49:22.018Z,20.43
2023-04-07T21:51:49.095Z,19.40
2023-04-07T21:54:15.774Z,17.97
2023-04-07T21:56:42.404Z,18.27
2023-04-07T21:59:09.009Z,18.40
2023-04-07T22:01:35.648Z,18.27
2023-04-07T22:04:02.441Z,17.37
2023-04-07T22:06:29.098Z,16.90
2023-04-07T22:09:01.891Z,18.13
2023-04-07T22:11:29.463Z,17.10
2023-04-07T22:13:56.207Z,17.83
2023-04-07T22:16:22.962Z,17.10
2023-04-07T22:18:50.102Z,17.63
2023-04-07T22:21:17.101Z,19.27
2023-04-07T22:23:44.352Z,18.43
2023-04-07T22:26:11.201Z,19.47
2023-04-07T22:28:37.821Z,20.27
2023-04-07T22:31:04.658Z,19.27
2023-04-07T22:33:31.472Z,19.33
2023-04-07T22:35:58.063Z,18.90
2023-04-07T22:38:24.775Z,16.73
2023-04-07T22:40:51.384Z,18.63
2023-04-07T22:43:18.031Z,19.63
2023-04-07T22:45:44.631Z,19.70
2023-04-07T22:48:11.322Z,19.57
2023-04-07T22:50:38.022Z,19.20
2023-04-07T22:53:04.717Z,19.23
2023-04-07T22:55:31.275Z,19.47
2023-04-07T22:57:57.896Z,18.97
2023-04-07T23:00:24.589Z,19.37
2023-04-07T23:02:51.569Z,17.93
2023-04-07T23:05:18.443Z,19.13
2023-04-07T23:07:44.989Z,20.73
2023-04-07T23:10:11.611Z,20.93
2023-04-07T23:12:38.232Z,20.97
2023-04-07T23:15:05.324Z,20.13
2023-04-07T23:17:32.280Z,20.30
2023-04-07T23:19:58.944Z,21.77
2023-04-07T23:22:25.691Z,20.73
2023-04-07T23:24:52.328Z,21.27
2023-04-07T23:27:18.906Z,19.20
2023-04-07T23:29:45.593Z,20.17
2023-04-07T23:32:12.660Z,19.43
2023-04-07T23:34:40.076Z,20.40
2023-04-07T23:37:06.925Z,19.23
2023-04-07T23:39:34.419Z,18.43
2023-04-07T23:42:02.120Z,19.13
2023-04-07T23:44:28.710Z,18.20
2023-04-07T23:46:55.427Z,19.23
2023-04-07T23:49:22.297Z,19.27
2023-04-07T23:51:48.888Z,18.47
2023-04-07T23:54:15.465Z,18.53
2023-04-07T23:56:42.403Z,17.50
2023-04-07T23:59:09.004Z,17.93
